Time;durP1;ratioP1;P1;durP2;ratioP2;P2;SDS_P1;SDS_P2;PMS_P1;PMS_P2;Temp;Humidity;BMP_temperature;BMP_pressure;BME280_temperature;BME280_humidity;BME280_pressure;Samples;Min_cycle;Max_cycle;Signal;HPM_P1;HPM_P2
2023/09/11 00:01:21;;;;;;;40.50;29.63;;;18.40;1.00;;;;;;5033224;28;20287;-54
2023/09/11 00:03:49;;;;;;;32.13;25.27;;;18.30;1.00;;;;;;5031719;28;20195;-54
2023/09/11 00:06:15;;;;;;;35.57;27.60;;;18.30;1.00;;;;;;5033356;28;20202;-53
2023/09/11 00:08:40;;;;;;;34.90;24.90;;;18.40;1.00;;;;;;5032472;28;20456;-54
2023/09/11 00:11:06;;;;;;;32.90;23.87;;;18.40;1.00;;;;;;5031756;28;21321;-53
2023/09/11 00:13:31;;;;;;;33.50;25.50;;;18.40;1.00;;;;;;5034219;28;20182;-53
2023/09/11 00:15:57;;;;;;;31.57;24.00;;;18.40;1.00;;;;;;5030871;28;20677;-54
2023/09/11 00:18:26;;;;;;;36.47;27.20;;;18.40;1.00;;;;;;5033878;28;20186;-54
2023/09/11 00:20:52;;;;;;;37.17;28.60;;;18.40;1.00;;;;;;5033548;28;20202;-54
2023/09/11 00:23:17;;;;;;;32.83;25.43;;;18.40;1.00;;;;;;5032978;28;20595;-54
2023/09/11 00:25:43;;;;;;;31.30;23.80;;;18.40;1.00;;;;;;5031606;28;20449;-54
2023/09/11 00:28:08;;;;;;;31.60;24.57;;;18.40;1.00;;;;;;5033140;28;20711;-54
2023/09/11 00:30:37;;;;;;;33.43;24.60;;;18.50;1.00;;;;;;5032557;28;20229;-55
2023/09/11 00:33:03;;;;;;;30.23;23.93;;;18.50;99.90;;;;;;5032564;28;20229;-54
2023/09/11 00:35:29;;;;;;;32.30;25.70;;;18.50;99.90;;;;;;5030837;28;20784;-54
2023/09/11 00:37:54;;;;;;;31.03;24.60;;;18.50;99.90;;;;;;5033661;28;20453;-52
2023/09/11 00:40:20;;;;;;;31.50;22.60;;;18.50;76.30;;;;;;5032086;28;20217;-53
2023/09/11 00:42:45;;;;;;;29.20;23.80;;;18.50;99.90;;;;;;5032618;28;20308;-54
2023/09/11 00:45:12;;;;;;;29.20;22.57;;;18.50;99.90;;;;;;5033106;28;20220;-54
2023/09/11 00:47:39;;;;;;;29.10;23.33;;;18.40;1.00;;;;;;5031577;28;20218;-53
2023/09/11 00:50:07;;;;;;;30.03;23.63;;;18.40;1.00;;;;;;5033357;28;20527;-54
2023/09/11 00:52:33;;;;;;;35.43;25.80;;;18.40;1.00;;;;;;5031226;28;20950;-54
2023/09/11 00:54:59;;;;;;;29.83;24.00;;;18.40;1.00;;;;;;5031470;28;20473;-54
2023/09/11 00:57:26;;;;;;;30.23;23.07;;;18.40;99.90;;;;;;5031412;28;20195;-54
2023/09/11 00:59:51;;;;;;;30.90;23.47;;;18.40;1.00;;;;;;5031802;28;20445;-54
2023/09/11 01:02:18;;;;;;;25.90;21.50;;;18.40;99.90;;;;;;5032771;28;20442;-54
2023/09/11 01:04:45;;;;;;;32.23;23.63;;;18.40;1.00;;;;;;5032161;28;20532;-53
2023/09/11 01:07:13;;;;;;;34.00;23.43;;;18.40;1.00;;;;;;5031229;28;20451;-53
2023/09/11 01:09:40;;;;;;;32.60;24.80;;;18.30;1.00;;;;;;5031062;28;20489;-53
2023/09/11 01:12:06;;;;;;;31.17;23.80;;;18.30;1.00;;;;;;5031103;28;21015;-53
2023/09/11 01:14:32;;;;;;;30.30;23.10;;;18.30;1.00;;;;;;5032586;28;20448;-54
2023/09/11 01:17:13;;;;;;;35.73;26.70;;;18.30;1.00;;;;;;5029984;28;20455;-54
2023/09/11 01:19:54;;;;;;;30.33;23.57;;;18.30;99.90;;;;;;5030536;28;20445;-53
2023/09/11 01:22:50;;;;;;;33.83;24.97;;;18.30;99.90;;;;;;5029302;28;20504;-54
2023/09/11 01:25:32;;;;;;;33.93;23.43;;;18.20;1.00;;;;;;5030526;28;20457;-54
2023/09/11 01:28:22;;;;;;;29.93;24.10;;;18.10;66.70;;;;;;5028874;28;20462;-54
2023/09/11 01:30:49;;;;;;;31.07;23.70;;;18.20;1.00;;;;;;5026909;28;20493;-54
2023/09/11 01:33:15;;;;;;;34.60;24.30;;;18.20;99.90;;;;;;5029453;28;20438;-53
2023/09/11 01:35:40;;;;;;;37.07;28.57;;;18.10;1.00;;;;;;5030496;28;20494;-54
2023/09/11 01:38:07;;;;;;;30.17;23.03;;;18.10;1.00;;;;;;5027993;28;20188;-53
2023/09/11 01:40:34;;;;;;;30.90;23.83;;;18.00;1.00;;;;;;5029402;28;20194;-53
2023/09/11 01:43:03;;;;;;;44.23;32.57;;;18.00;99.90;;;;;;5031089;28;20441;-54
2023/09/11 01:45:31;;;;;;;39.60;28.33;;;17.80;99.90;;;;;;5029876;28;20488;-54
2023/09/11 01:48:00;;;;;;;48.13;32.70;;;17.70;99.90;;;;;;5031089;28;20449;-53
2023/09/11 01:50:28;;;;;;;40.87;31.20;;;17.70;1.00;;;;;;5030571;28;20532;-53
2023/09/11 01:52:55;;;;;;;42.67;30.03;;;17.70;1.00;;;;;;5030225;28;20446;-54
2023/09/11 01:55:21;;;;;;;49.43;33.30;;;17.60;16.90;;;;;;5030604;28;20450;-53
2023/09/11 01:57:46;;;;;;;42.47;29.83;;;17.50;28.90;;;;;;5027085;28;20476;-52
2023/09/11 02:00:12;;;;;;;46.30;33.20;;;17.50;99.90;;;;;;5030538;28;20201;-53
2023/09/11 02:02:39;;;;;;;53.20;35.33;;;17.50;21.50;;;;;;5029561;28;20564;-53
2023/09/11 02:05:05;;;;;;;44.43;30.77;;;17.40;1.00;;;;;;5029715;28;20452;-53
2023/09/11 02:07:30;;;;;;;42.83;29.63;;;17.40;21.20;;;;;;5030690;28;20440;-54
2023/09/11 02:09:56;;;;;;;37.70;29.47;;;17.50;1.00;;;;;;5030255;28;20484;-53
2023/09/11 02:12:22;;;;;;;44.57;30.20;;;17.60;98.30;;;;;;5031013;28;20182;-53
2023/09/11 02:14:48;;;;;;;41.53;28.50;;;17.60;1.00;;;;;;5027558;28;20202;-54
2023/09/11 02:17:13;;;;;;;51.93;35.13;;;17.70;99.90;;;;;;5030422;28;20451;-53
2023/09/11 02:19:39;;;;;;;37.67;26.47;;;17.70;99.90;;;;;;5028905;28;20739;-53
2023/09/11 02:22:04;;;;;;;34.30;26.43;;;17.70;5.40;;;;;;5028893;28;20238;-52
2023/09/11 02:24:30;;;;;;;44.40;30.80;;;17.80;1.00;;;;;;5031613;28;20195;-53
2023/09/11 02:26:56;;;;;;;47.13;30.40;;;17.80;1.00;;;;;;5029138;28;20226;-53
2023/09/11 02:29:22;;;;;;;43.37;30.53;;;17.80;1.00;;;;;;5026631;28;20222;-53
2023/09/11 02:31:47;;;;;;;46.37;29.50;;;17.80;1.00;;;;;;5029534;28;20451;-54
2023/09/11 02:34:13;;;;;;;52.97;33.17;;;17.70;99.90;;;;;;5029922;28;20203;-51
2023/09/11 02:36:38;;;;;;;39.50;28.50;;;17.70;1.00;;;;;;5029709;28;20198;-53
2023/09/11 02:39:04;;;;;;;40.53;29.23;;;17.70;99.90;;;;;;5030255;28;20214;-53
2023/09/11 02:41:29;;;;;;;42.60;28.40;;;17.70;99.90;;;;;;5029394;28;20183;-53
2023/09/11 02:43:55;;;;;;;38.10;27.77;;;17.70;99.90;;;;;;5029305;28;20260;-54
2023/09/11 02:46:21;;;;;;;39.23;29.50;;;17.70;1.00;;;;;;5029157;28;20658;-53
2023/09/11 02:48:47;;;;;;;38.20;27.47;;;17.70;99.90;;;;;;5028949;28;20245;-53
2023/09/11 02:51:14;;;;;;;39.33;29.10;;;17.60;24.70;;;;;;5029693;28;20198;-51
2023/09/11 02:53:39;;;;;;;41.70;30.20;;;17.60;1.00;;;;;;5028294;28;20530;-53
2023/09/11 02:56:05;;;;;;;41.83;29.40;;;17.50;1.00;;;;;;5030046;28;20555;-52
2023/09/11 02:58:31;;;;;;;43.20;31.07;;;17.50;99.90;;;;;;5030495;28;20186;-53
2023/09/11 03:01:04;;;;;;;37.53;27.17;;;17.50;99.90;;;;;;5028118;28;20285;-53
2023/09/11 03:03:30;;;;;;;41.93;30.03;;;17.50;1.00;;;;;;5029626;28;20185;-53
2023/09/11 03:06:00;;;;;;;40.90;28.97;;;17.50;99.90;;;;;;5029291;28;20536;-52
2023/09/11 03:08:26;;;;;;;46.63;31.33;;;17.40;99.90;;;;;;5027068;28;20476;-51
2023/09/11 03:10:52;;;;;;;41.83;28.37;;;17.30;99.90;;;;;;5029205;28;20813;-53
2023/09/11 03:13:18;;;;;;;39.17;28.40;;;17.30;1.00;;;;;;5028943;28;20444;-53
2023/09/11 03:15:44;;;;;;;42.93;30.77;;;17.40;99.90;;;;;;5030399;28;20444;-54
2023/09/11 03:18:09;;;;;;;38.37;27.20;;;17.40;1.00;;;;;;5029378;28;20267;-53
2023/09/11 03:20:35;;;;;;;40.43;28.60;;;17.40;1.00;;;;;;5027719;28;20189;-53
2023/09/11 03:23:01;;;;;;;38.33;27.10;;;17.40;99.90;;;;;;5029965;28;20233;-52
2023/09/11 03:25:26;;;;;;;47.50;32.73;;;17.40;99.90;;;;;;5031425;28;20187;-53
2023/09/11 03:27:55;;;;;;;38.47;28.60;;;17.50;1.00;;;;;;5032686;28;20202;-53
2023/09/11 03:30:20;;;;;;;38.63;29.00;;;17.40;1.00;;;;;;5031369;28;20233;-54
2023/09/11 03:32:46;;;;;;;38.17;28.37;;;17.40;99.90;;;;;;5034121;28;20563;-53
2023/09/11 03:35:12;;;;;;;40.37;26.33;;;17.30;1.00;;;;;;5033200;28;20245;-53
2023/09/11 03:37:37;;;;;;;42.83;28.00;;;17.30;99.90;;;;;;5032313;28;20285;-53
2023/09/11 03:40:13;;;;;;;34.60;25.57;;;17.30;99.90;;;;;;5031142;28;20279;-54
2023/09/11 03:42:39;;;;;;;38.37;27.07;;;17.30;99.90;;;;;;5030834;28;20194;-51
2023/09/11 03:45:08;;;;;;;34.97;26.20;;;17.40;99.90;;;;;;5030518;28;20583;-53
2023/09/11 03:47:33;;;;;;;38.97;26.80;;;17.40;1.00;;;;;;5030993;28;20202;-53
2023/09/11 03:50:01;;;;;;;38.07;27.53;;;17.40;99.90;;;;;;5031536;28;20570;-52
2023/09/11 03:52:27;;;;;;;35.10;25.77;;;17.40;99.90;;;;;;5032651;28;20201;-53
2023/09/11 03:54:53;;;;;;;35.70;25.97;;;17.40;1.00;;;;;;5031198;28;20444;-52
2023/09/11 03:57:18;;;;;;;32.33;24.10;;;17.50;99.90;;;;;;5033947;28;20219;-53
2023/09/11 03:59:44;;;;;;;33.13;25.20;;;17.50;99.90;;;;;;5031011;28;20320;-53
2023/09/11 04:02:09;;;;;;;31.30;24.23;;;17.50;1.00;;;;;;5032559;28;20198;-54
2023/09/11 04:04:35;;;;;;;37.33;26.70;;;17.50;1.00;;;;;;5032182;28;20201;-52
2023/09/11 04:07:01;;;;;;;39.00;28.33;;;17.50;1.00;;;;;;5032346;28;20700;-53
2023/09/11 04:09:26;;;;;;;51.53;35.70;;;17.40;19.40;;;;;;5032051;28;21324;-53
2023/09/11 04:11:52;;;;;;;34.93;26.87;;;17.30;1.00;;;;;;5031363;28;20559;-54
2023/09/11 04:14:17;;;;;;;43.40;31.27;;;17.20;99.90;;;;;;5033334;28;20217;-53
2023/09/11 04:16:43;;;;;;;50.40;33.73;;;17.20;1.00;;;;;;5032545;28;20196;-53
2023/09/11 04:19:08;;;;;;;42.47;30.33;;;17.20;1.00;;;;;;5031827;28;20203;-53
2023/09/11 04:21:34;;;;;;;42.37;31.17;;;17.20;21.10;;;;;;5029111;28;20325;-53
2023/09/11 04:24:00;;;;;;;41.03;29.50;;;17.10;99.90;;;;;;5032480;28;20204;-53
2023/09/11 04:26:25;;;;;;;40.30;28.97;;;17.20;1.00;;;;;;5032088;28;20663;-50
2023/09/11 04:28:51;;;;;;;45.00;30.90;;;17.20;1.00;;;;;;5032654;28;20181;-53
2023/09/11 04:31:16;;;;;;;44.80;27.47;;;17.20;99.90;;;;;;5031102;28;20203;-54
2023/09/11 04:33:42;;;;;;;44.13;30.03;;;17.30;40.10;;;;;;5028661;28;20211;-53
2023/09/11 04:36:07;;;;;;;32.70;25.50;;;17.30;99.90;;;;;;5030171;28;20201;-52
2023/09/11 04:38:33;;;;;;;32.63;25.50;;;17.20;1.00;;;;;;5031632;28;20267;-54
2023/09/11 04:40:58;;;;;;;34.40;26.00;;;17.20;1.00;;;;;;5031793;28;20197;-52
2023/09/11 04:43:24;;;;;;;37.47;26.40;;;17.20;1.00;;;;;;5029989;28;20755;-53
2023/09/11 04:45:50;;;;;;;35.90;26.27;;;17.20;99.90;;;;;;5031389;28;20193;-54
2023/09/11 04:48:16;;;;;;;35.80;26.10;;;17.20;99.90;;;;;;5030878;28;20440;-53
2023/09/11 04:50:42;;;;;;;34.50;26.97;;;17.30;1.00;;;;;;5032588;28;20222;-53
2023/09/11 04:53:07;;;;;;;38.00;26.40;;;17.40;99.90;;;;;;5031831;28;20226;-53
2023/09/11 04:55:33;;;;;;;37.20;26.60;;;17.40;1.00;;;;;;5028878;28;20193;-54
2023/09/11 04:57:58;;;;;;;36.37;27.83;;;17.40;1.00;;;;;;5031107;28;20212;-53
2023/09/11 05:00:26;;;;;;;37.00;25.77;;;17.40;1.00;;;;;;5031352;28;20251;-52
2023/09/11 05:02:51;;;;;;;34.00;25.57;;;17.40;22.40;;;;;;5032102;28;20532;-53
2023/09/11 05:05:17;;;;;;;35.70;25.70;;;17.40;96.30;;;;;;5025244;28;20436;-53
2023/09/11 05:07:43;;;;;;;34.50;25.47;;;17.50;31.90;;;;;;5030655;28;20201;-53
2023/09/11 05:10:09;;;;;;;33.83;24.97;;;17.50;99.90;;;;;;5030503;28;20612;-52
2023/09/11 05:12:35;;;;;;;28.77;21.97;;;17.50;1.00;;;;;;5031361;28;20221;-53
2023/09/11 05:15:01;;;;;;;34.00;25.00;;;17.50;99.90;;;;;;5030076;28;20479;-53
2023/09/11 05:17:27;;;;;;;43.83;27.83;;;17.50;60.10;;;;;;5031566;28;20192;-52
2023/09/11 05:19:52;;;;;;;40.40;28.90;;;17.50;99.90;;;;;;5029499;28;20449;-52
2023/09/11 05:22:18;;;;;;;42.20;26.43;;;17.40;99.90;;;;;;5030613;28;20236;-53
2023/09/11 05:24:44;;;;;;;40.27;28.10;;;17.30;99.90;;;;;;5031019;28;20192;-53
2023/09/11 05:27:09;;;;;;;45.30;31.10;;;17.30;1.00;;;;;;5031398;28;20443;-54
2023/09/11 05:29:35;;;;;;;47.70;32.50;;;17.30;99.90;;;;;;5032315;28;20309;-53
2023/09/11 05:32:00;;;;;;;43.67;29.10;;;17.20;1.00;;;;;;5028217;28;20187;-53
2023/09/11 05:34:26;;;;;;;46.20;31.70;;;17.20;1.00;;;;;;5029010;28;20182;-52
2023/09/11 05:36:51;;;;;;;39.90;28.33;;;17.30;1.00;;;;;;5028941;28;20193;-53
2023/09/11 05:39:17;;;;;;;47.47;33.00;;;17.30;1.00;;;;;;5030365;28;20277;-53
2023/09/11 05:41:42;;;;;;;46.13;33.23;;;17.30;1.00;;;;;;5029418;28;20213;-54
2023/09/11 05:44:08;;;;;;;44.67;30.10;;;17.40;1.00;;;;;;5030900;28;20191;-53
2023/09/11 05:46:34;;;;;;;38.43;28.10;;;17.40;99.90;;;;;;5031618;28;20189;-53
2023/09/11 05:48:59;;;;;;;41.93;30.80;;;17.50;1.00;;;;;;5029728;28;20197;-54
2023/09/11 05:51:25;;;;;;;48.37;33.40;;;17.50;99.90;;;;;;5029416;28;20203;-53
2023/09/11 05:53:50;;;;;;;41.70;30.10;;;17.60;99.90;;;;;;5031265;28;20551;-54
2023/09/11 05:56:16;;;;;;;41.97;30.80;;;17.60;4.80;;;;;;5029823;28;20189;-53
2023/09/11 05:58:43;;;;;;;48.97;31.53;;;17.70;1.00;;;;;;5030743;28;20246;-54
2023/09/11 06:01:08;;;;;;;38.90;28.80;;;17.70;99.90;;;;;;5028923;28;20564;-54
2023/09/11 06:03:34;;;;;;;38.03;28.73;;;17.80;99.90;;;;;;5031495;28;20437;-54
2023/09/11 06:06:00;;;;;;;43.43;32.07;;;17.90;1.00;;;;;;5030593;28;20186;-53
2023/09/11 06:08:25;;;;;;;48.80;33.20;;;18.00;99.90;;;;;;5029653;28;20190;-54
2023/09/11 06:10:51;;;;;;;46.73;34.67;;;18.00;99.90;;;;;;5028805;28;21016;-52
2023/09/11 06:13:16;;;;;;;45.90;33.47;;;18.10;1.00;;;;;;5028384;28;20195;-54
2023/09/11 06:15:42;;;;;;;53.00;36.90;;;18.10;65.40;;;;;;5027096;28;20186;-53
2023/09/11 06:18:08;;;;;;;46.80;33.00;;;18.10;1.00;;;;;;5029576;28;20192;-53
2023/09/11 06:20:34;;;;;;;40.27;30.60;;;18.20;1.00;;;;;;5030003;28;20183;-54
2023/09/11 06:23:00;;;;;;;52.00;35.70;;;18.30;99.90;;;;;;5028431;28;20863;-54
2023/09/11 06:25:36;;;;;;;48.73;35.87;;;18.40;18.90;;;;;;5026607;28;20453;-51
2023/09/11 06:28:03;;;;;;;65.43;35.90;;;18.40;99.90;;;;;;4985693;28;20886;-51
2023/09/11 06:30:30;;;;;;;52.93;36.20;;;18.50;1.00;;;;;;5018662;28;20546;-54
2023/09/11 06:32:55;;;;;;;54.93;34.73;;;18.70;1.00;;;;;;5030514;28;20444;-53
2023/09/11 06:35:21;;;;;;;42.70;32.70;;;18.80;52.10;;;;;;5031012;28;20437;-54
2023/09/11 06:37:48;;;;;;;52.27;33.83;;;19.00;52.50;;;;;;5030253;28;20187;-53
2023/09/11 06:40:14;;;;;;;45.53;32.20;;;19.10;99.90;;;;;;5027037;28;20289;-54
2023/09/11 06:42:40;;;;;;;52.90;34.07;;;19.20;99.90;;;;;;5025815;28;20512;-54
2023/09/11 06:45:06;;;;;;;50.43;33.60;;;19.30;99.90;;;;;;5031185;28;20930;-54
2023/09/11 06:47:31;;;;;;;53.60;33.97;;;19.50;23.20;;;;;;5030175;28;20238;-55
2023/09/11 06:49:57;;;;;;;49.50;30.37;;;19.70;30.10;;;;;;5029083;28;20466;-54
2023/09/11 06:52:22;;;;;;;50.97;32.70;;;19.80;1.00;;;;;;5030252;28;20229;-54
2023/09/11 06:54:48;;;;;;;39.17;27.83;;;20.00;1.00;;;;;;5030726;28;20230;-54
2023/09/11 06:57:14;;;;;;;47.63;30.13;;;20.20;1.00;;;;;;5031148;28;20270;-53
2023/09/11 06:59:39;;;;;;;36.83;27.60;;;20.40;99.90;;;;;;5032265;28;20191;-53
2023/09/11 07:02:05;;;;;;;37.33;28.40;;;20.70;99.90;;;;;;5035380;28;20194;-54
2023/09/11 07:04:31;;;;;;;36.13;25.93;;;21.00;99.90;;;;;;5033742;28;20679;-53
2023/09/11 07:06:57;;;;;;;40.80;30.33;;;21.30;93.30;;;;;;5035525;28;20499;-52
2023/09/11 07:09:23;;;;;;;43.40;30.67;;;21.50;10.30;;;;;;5034095;28;20250;-53
2023/09/11 07:11:50;;;;;;;41.80;29.47;;;21.70;15.10;;;;;;5033377;28;20199;-53
2023/09/11 07:14:23;;;;;;;41.83;31.23;;;21.80;36.50;;;;;;5032712;28;20437;-52
2023/09/11 07:16:49;;;;;;;41.60;30.53;;;22.00;1.00;;;;;;5034721;28;20441;-54
2023/09/11 07:19:14;;;;;;;39.70;28.93;;;22.10;1.00;;;;;;5035429;28;20438;-54
2023/09/11 07:21:41;;;;;;;35.30;26.03;;;22.30;1.00;;;;;;5034099;28;20328;-52
2023/09/11 07:24:07;;;;;;;36.83;25.47;;;22.50;1.00;;;;;;5034360;28;20222;-52
2023/09/11 07:26:33;;;;;;;35.87;24.80;;;22.60;1.00;;;;;;5032637;28;20856;-54
2023/09/11 07:29:02;;;;;;;36.57;26.03;;;22.90;1.00;;;;;;5033328;28;20187;-54
2023/09/11 07:31:28;;;;;;;29.20;24.60;;;23.00;1.00;;;;;;5030256;28;20191;-54
2023/09/11 07:33:54;;;;;;;51.03;30.67;;;23.30;1.00;;;;;;5035522;28;20780;-53
2023/09/11 07:36:20;;;;;;;46.27;26.13;;;23.50;1.00;;;;;;5034201;28;20453;-55
2023/09/11 07:38:46;;;;;;;37.80;26.07;;;23.80;1.00;;;;;;5032581;28;20210;-56
2023/09/11 07:41:14;;;;;;;35.60;25.33;;;24.00;1.00;;;;;;5033145;28;20203;-55
2023/09/11 07:43:39;;;;;;;35.57;24.47;;;24.20;1.00;;;;;;5033354;28;20454;-55
2023/09/11 07:46:05;;;;;;;35.50;25.40;;;24.50;1.00;;;;;;5032182;28;20859;-55
2023/09/11 07:48:31;;;;;;;31.10;23.57;;;24.70;1.00;;;;;;5033492;28;20176;-55
2023/09/11 07:50:56;;;;;;;33.83;22.90;;;25.00;1.00;;;;;;5034443;28;20217;-52
2023/09/11 07:53:22;;;;;;;44.70;21.47;;;25.10;1.00;;;;;;5034109;28;20239;-53
2023/09/11 07:55:48;;;;;;;31.40;21.93;;;25.40;1.00;;;;;;5033743;28;20683;-53
2023/09/11 07:58:14;;;;;;;29.70;20.20;;;25.70;1.00;;;;;;5034126;28;20191;-53
2023/09/11 08:00:39;;;;;;;29.93;19.70;;;25.90;1.00;;;;;;5048959;28;20195;-54
2023/09/11 08:03:05;;;;;;;26.80;21.07;;;26.20;1.00;;;;;;5034493;28;20449;-52
2023/09/11 08:05:31;;;;;;;26.60;20.03;;;26.30;1.00;;;;;;5033660;28;20274;-54
2023/09/11 08:08:01;;;;;;;35.57;20.83;;;26.60;1.00;;;;;;5034202;28;20652;-53
2023/09/11 08:10:27;;;;;;;36.00;20.30;;;26.70;1.00;;;;;;5032766;28;20266;-54
2023/09/11 08:12:52;;;;;;;26.77;19.50;;;26.90;1.00;;;;;;5033123;28;20445;-53
2023/09/11 08:15:18;;;;;;;27.00;19.10;;;27.00;1.00;;;;;;5034019;28;20441;-54
2023/09/11 08:17:44;;;;;;;36.13;17.83;;;27.10;1.00;;;;;;5033119;28;20187;-54
2023/09/11 08:20:10;;;;;;;26.67;18.80;;;27.20;1.00;;;;;;5033857;28;20187;-54
2023/09/11 08:22:37;;;;;;;22.57;17.63;;;27.50;1.00;;;;;;5032961;28;20231;-54
2023/09/11 08:25:02;;;;;;;29.97;18.27;;;27.60;1.00;;;;;;5032878;28;20807;-54
2023/09/11 08:27:28;;;;;;;22.47;15.97;;;27.80;1.00;;;;;;5033041;28;20446;-54
2023/09/11 08:29:55;;;;;;;23.30;16.70;;;28.00;1.00;;;;;;5033644;28;20293;-51
2023/09/11 08:32:21;;;;;;;21.67;16.37;;;28.20;1.00;;;;;;5033675;28;20183;-54
2023/09/11 08:34:46;;;;;;;26.27;16.40;;;28.50;1.00;;;;;;5032148;28;20572;-54
2023/09/11 08:37:12;;;;;;;21.37;15.90;;;28.50;1.00;;;;;;5033389;28;20697;-54
2023/09/11 08:39:37;;;;;;;19.73;15.87;;;28.50;1.00;;;;;;5033523;28;20192;-54
2023/09/11 08:42:04;;;;;;;21.97;16.07;;;28.60;1.00;;;;;;5032760;28;20208;-54
2023/09/11 08:44:29;;;;;;;28.17;15.63;;;28.70;1.00;;;;;;5032957;28;20590;-51
2023/09/11 08:46:58;;;;;;;18.90;14.77;;;28.80;1.00;;;;;;5032846;28;20459;-54
2023/09/11 08:49:28;;;;;;;26.23;13.97;;;28.90;1.00;;;;;;5032372;28;20223;-54
2023/09/11 08:51:54;;;;;;;26.60;17.40;;;29.10;99.90;;;;;;5029898;28;20571;-54
2023/09/11 08:54:25;;;;;;;24.60;14.97;;;29.20;99.90;;;;;;5032547;28;20440;-54
2023/09/11 08:56:53;;;;;;;19.20;15.13;;;29.20;99.90;;;;;;5033674;28;20594;-54
2023/09/11 08:59:23;;;;;;;28.27;14.50;;;29.30;99.90;;;;;;5032909;28;20477;-54
2023/09/11 09:01:49;;;;;;;21.53;13.80;;;29.40;99.90;;;;;;5031417;28;20472;-54
2023/09/11 09:04:16;;;;;;;24.37;13.23;;;29.40;99.90;;;;;;5029768;28;20442;-53
2023/09/11 09:06:45;;;;;;;21.47;14.37;;;29.50;99.90;;;;;;5032455;28;20524;-53
2023/09/11 09:09:11;;;;;;;18.33;14.60;;;29.60;99.90;;;;;;5032866;28;20488;-53
2023/09/11 09:11:38;;;;;;;22.43;14.40;;;29.60;99.90;;;;;;5032117;28;20442;-54
2023/09/11 09:14:08;;;;;;;23.67;14.73;;;29.40;99.90;;;;;;5032591;28;20198;-53
2023/09/11 09:16:33;;;;;;;20.07;14.40;;;29.40;99.90;;;;;;5032093;28;20434;-54
2023/09/11 09:19:00;;;;;;;24.33;14.17;;;29.30;99.90;;;;;;5032353;28;20941;-52
2023/09/11 09:21:27;;;;;;;29.40;15.23;;;29.00;99.90;;;;;;5030820;28;20231;-52
2023/09/11 09:23:53;;;;;;;27.07;15.37;;;28.60;99.90;;;;;;5031605;28;20509;-52
2023/09/11 09:26:19;;;;;;;22.20;15.57;;;28.30;99.90;;;;;;5031997;28;20537;-51
2023/09/11 09:28:47;;;;;;;28.77;14.80;;;28.00;99.90;;;;;;5031220;28;20231;-51
2023/09/11 09:31:33;;;;;;;23.40;13.90;;;27.80;99.90;;;;;;5031207;28;20585;-50
2023/09/11 09:33:58;;;;;;;23.10;15.20;;;27.60;99.90;;;;;;5030767;28;20474;-50
2023/09/11 09:36:24;;;;;;;26.73;14.77;;;27.50;99.90;;;;;;5031507;28;20496;-51
2023/09/11 09:38:50;;;;;;;24.70;14.20;;;27.30;99.90;;;;;;5031300;28;20195;-50
2023/09/11 09:41:20;;;;;;;33.77;19.50;;;27.30;99.90;;;;;;5027150;28;20199;-50
2023/09/11 09:43:53;;;;;;;22.63;13.80;;;27.20;99.90;;;;;;5032585;28;20777;-51
2023/09/11 09:46:20;;;;;;;32.40;14.90;;;27.00;1.00;;;;;;5031227;28;20458;-49
2023/09/11 09:48:46;;;;;;;15.40;13.00;;;26.90;99.90;;;;;;5030539;28;20509;-50
2023/09/11 09:51:11;;;;;;;16.90;12.43;;;26.90;99.90;;;;;;5029336;28;20623;-50
2023/09/11 09:53:42;;;;;;;25.33;12.13;;;26.90;99.90;;;;;;5028878;28;20195;-50
2023/09/11 09:56:10;;;;;;;20.03;11.97;;;26.90;99.90;;;;;;5029401;28;20203;-50
2023/09/11 09:58:36;;;;;;;30.17;11.70;;;27.00;99.90;;;;;;5030687;28;20915;-50
2023/09/11 10:01:08;;;;;;;16.63;11.10;;;27.10;99.90;;;;;;5030602;28;20437;-50
2023/09/11 10:03:46;;;;;;;17.03;11.30;;;27.10;99.90;;;;;;5031420;28;20441;-51
2023/09/11 10:06:31;;;;;;;26.90;11.33;;;27.20;99.90;;;;;;5029032;28;21801;-50
2023/09/11 10:09:08;;;;;;;18.20;12.43;;;27.40;99.90;;;;;;5028986;28;20457;-50
2023/09/11 10:11:35;;;;;;;18.30;11.63;;;27.40;99.90;;;;;;5031376;28;20503;-51
2023/09/11 10:14:03;;;;;;;18.50;12.60;;;27.50;99.90;;;;;;5046209;28;20446;-52
2023/09/11 10:16:30;;;;;;;17.47;11.73;;;27.60;99.90;;;;;;5031883;28;20544;-52
2023/09/11 10:18:57;;;;;;;17.00;10.93;;;27.70;99.90;;;;;;5030281;28;20875;-50
2023/09/11 10:21:24;;;;;;;13.33;11.03;;;27.90;99.90;;;;;;5030336;28;20566;-49
2023/09/11 10:23:50;;;;;;;17.23;11.30;;;28.30;99.90;;;;;;5031341;28;20430;-50
2023/09/11 10:26:34;;;;;;;18.47;11.37;;;28.60;99.90;;;;;;5030796;28;20438;-51
2023/09/11 10:29:05;;;;;;;16.40;9.50;;;28.90;99.90;;;;;;5029838;28;20445;-50
2023/09/11 10:31:35;;;;;;;16.37;10.10;;;29.20;99.90;;;;;;5030016;28;20450;-50
2023/09/11 10:34:02;;;;;;;12.33;10.60;;;29.40;99.90;;;;;;5029790;28;20474;-50
2023/09/11 10:36:35;;;;;;;14.67;9.80;;;29.80;99.90;;;;;;5029272;28;20519;-50
2023/09/11 10:39:04;;;;;;;18.40;9.97;;;30.20;99.90;;;;;;5030525;28;20441;-49
2023/09/11 10:41:30;;;;;;;15.97;9.40;;;30.50;99.90;;;;;;5029034;28;20431;-50
2023/09/11 10:43:56;;;;;;;16.27;8.90;;;31.00;99.90;;;;;;5029668;28;21811;-50
2023/09/11 10:46:22;;;;;;;17.20;15.03;;;31.60;99.90;;;;;;5029653;28;20527;-52
2023/09/11 10:48:50;;;;;;;16.33;9.53;;;32.20;99.90;;;;;;5029957;28;20193;-51
2023/09/11 10:51:16;;;;;;;15.20;10.33;;;32.70;99.90;;;;;;5030824;28;20761;-51
2023/09/11 10:53:42;;;;;;;15.77;9.30;;;33.00;99.90;;;;;;5029195;28;20517;-52
2023/09/11 10:56:09;;;;;;;19.40;9.97;;;33.40;99.90;;;;;;5031308;28;20214;-52
2023/09/11 10:58:35;;;;;;;13.43;9.40;;;33.70;99.90;;;;;;5030166;28;20445;-52
2023/09/11 11:01:05;;;;;;;18.17;10.00;;;34.10;99.90;;;;;;5029321;28;20438;-52
2023/09/11 11:03:32;;;;;;;15.80;9.50;;;34.30;99.90;;;;;;5029378;28;20195;-52
2023/09/11 11:06:02;;;;;;;12.50;8.83;;;34.80;99.90;;;;;;5027701;28;20915;-53
2023/09/11 11:08:34;;;;;;;17.50;9.40;;;35.10;99.90;;;;;;5029334;28;20977;-52
2023/09/11 11:11:01;;;;;;;13.20;9.30;;;35.40;99.90;;;;;;5027399;28;20486;-52
2023/09/11 11:13:27;;;;;;;17.27;9.23;;;35.70;99.90;;;;;;5029844;28;20922;-51
2023/09/11 11:16:14;;;;;;;19.90;9.23;;;35.90;99.90;;;;;;5027300;28;20438;-51
2023/09/11 11:18:40;;;;;;;11.20;9.43;;;35.70;99.90;;;;;;5029838;28;20636;-52
2023/09/11 11:21:08;;;;;;;14.93;9.83;;;35.60;99.90;;;;;;5029014;28;20442;-52
2023/09/11 11:23:36;;;;;;;17.17;9.80;;;35.50;99.90;;;;;;5030448;28;20192;-53
2023/09/11 11:26:06;;;;;;;21.57;10.53;;;35.30;99.90;;;;;;5029469;28;20833;-52
2023/09/11 11:28:45;;;;;;;17.23;9.10;;;35.40;99.90;;;;;;5030835;28;20430;-52
2023/09/11 11:31:18;;;;;;;16.07;8.80;;;35.50;99.90;;;;;;5029770;28;20981;-52
2023/09/11 11:33:46;;;;;;;13.87;8.97;;;36.00;99.90;;;;;;5028767;28;21048;-52
2023/09/11 11:36:12;;;;;;;11.53;9.20;;;36.10;99.90;;;;;;5030377;28;20448;-52
2023/09/11 11:38:42;;;;;;;16.00;9.77;;;36.10;99.90;;;;;;5030045;28;20430;-52
2023/09/11 11:41:09;;;;;;;21.03;9.67;;;35.90;99.90;;;;;;5029443;28;20801;-53
2023/09/11 11:43:35;;;;;;;15.73;9.20;;;35.80;99.90;;;;;;5030309;28;20440;-52
2023/09/11 11:46:01;;;;;;;12.73;8.57;;;35.90;99.90;;;;;;5030990;28;20441;-52
2023/09/11 11:48:27;;;;;;;15.63;9.17;;;36.00;99.90;;;;;;5030967;28;20187;-53
2023/09/11 11:50:54;;;;;;;12.07;9.20;;;36.40;99.90;;;;;;5033905;28;20469;-53
2023/09/11 11:53:23;;;;;;;17.90;9.90;;;36.30;99.90;;;;;;5033153;28;20450;-53
2023/09/11 11:55:56;;;;;;;16.73;8.87;;;36.40;99.90;;;;;;5033629;28;20525;-53
2023/09/11 11:58:22;;;;;;;16.73;11.33;;;36.60;99.90;;;;;;5030910;28;20430;-53
2023/09/11 12:00:59;;;;;;;17.60;10.17;;;36.60;99.90;;;;;;5033504;28;20460;-53
2023/09/11 12:03:26;;;;;;;13.67;9.13;;;36.80;99.90;;;;;;5031722;28;20183;-52
2023/09/11 12:05:52;;;;;;;18.80;10.40;;;36.60;99.90;;;;;;5031819;28;20945;-54
2023/09/11 12:08:17;;;;;;;18.57;13.30;;;36.70;99.90;;;;;;5033094;28;20457;-53
2023/09/11 12:10:50;;;;;;;17.30;11.10;;;36.60;99.90;;;;;;5031973;28;20952;-53
2023/09/11 12:13:18;;;;;;;27.83;10.07;;;36.80;99.90;;;;;;5032932;28;20191;-53
2023/09/11 12:15:52;;;;;;;16.37;10.80;;;37.00;99.90;;;;;;5033742;28;20453;-54
2023/09/11 12:18:17;;;;;;;12.50;9.93;;;36.80;99.90;;;;;;5032860;28;20432;-54
2023/09/11 12:21:01;;;;;;;19.43;9.67;;;36.50;99.90;;;;;;5033688;28;20479;-55
2023/09/11 12:23:27;;;;;;;16.53;10.30;;;36.10;99.90;;;;;;5032975;28;20689;-54
2023/09/11 12:25:53;;;;;;;20.60;13.10;;;36.00;99.90;;;;;;5033088;28;20445;-53
2023/09/11 12:28:21;;;;;;;25.27;9.97;;;35.80;99.90;;;;;;5031523;28;20449;-53
2023/09/11 12:30:47;;;;;;;13.77;9.73;;;36.00;99.90;;;;;;5032594;28;20816;-52
2023/09/11 12:33:23;;;;;;;14.57;9.20;;;36.20;99.90;;;;;;5031626;28;20442;-51